sensor_id;sensor_type;location;lat;lon;timestamp;temperature;humidity
11965;DHT22;6042;41.326;19.826;2024-03-17T00:00:30;12.50;99.90
11965;DHT22;6042;41.326;19.826;2024-03-17T00:02:58;12.40;99.90
11965;DHT22;6042;41.326;19.826;2024-03-17T00:05:24;12.40;99.90
11965;DHT22;6042;41.326;19.826;2024-03-17T00:07:52;12.60;99.90
11965;DHT22;6042;41.326;19.826;2024-03-17T00:10:19;12.70;99.90
11965;DHT22;6042;41.326;19.826;2024-03-17T00:12:47;12.80;99.90
11965;DHT22;6042;41.326;19.826;2024-03-17T00:15:14;12.90;99.90
11965;DHT22;6042;41.326;19.826;2024-03-17T00:17:42;12.80;99.90
11965;DHT22;6042;41.326;19.826;2024-03-17T00:20:11;12.80;99.90
11965;DHT22;6042;41.326;19.826;2024-03-17T00:22:46;12.80;99.90
11965;DHT22;6042;41.326;19.826;2024-03-17T00:25:12;12.70;99.90
11965;DHT22;6042;41.326;19.826;2024-03-17T00:27:40;12.80;99.90
11965;DHT22;6042;41.326;19.826;2024-03-17T00:30:11;12.80;99.90
11965;DHT22;6042;41.326;19.826;2024-03-17T00:32:39;12.70;99.90
11965;DHT22;6042;41.326;19.826;2024-03-17T00:35:07;12.40;99.90
11965;DHT22;6042;41.326;19.826;2024-03-17T00:37:35;12.10;99.90
11965;DHT22;6042;41.326;19.826;2024-03-17T00:40:02;12.00;99.90
11965;DHT22;6042;41.326;19.826;2024-03-17T00:42:30;12.00;99.90
11965;DHT22;6042;41.326;19.826;2024-03-17T00:44:56;11.80;99.90
11965;DHT22;6042;41.326;19.826;2024-03-17T00:47:27;11.80;99.90
11965;DHT22;6042;41.326;19.826;2024-03-17T00:49:54;11.80;99.90
11965;DHT22;6042;41.326;19.826;2024-03-17T00:52:21;11.80;99.90
11965;DHT22;6042;41.326;19.826;2024-03-17T00:54:48;11.80;99.90
11965;DHT22;6042;41.326;19.826;2024-03-17T00:57:16;12.00;99.90
11965;DHT22;6042;41.326;19.826;2024-03-17T00:59:43;12.20;99.90
11965;DHT22;6042;41.326;19.826;2024-03-17T01:02:11;12.40;99.90
11965;DHT22;6042;41.326;19.826;2024-03-17T01:04:40;12.50;99.90
11965;DHT22;6042;41.326;19.826;2024-03-17T01:07:08;12.60;99.90
11965;DHT22;6042;41.326;19.826;2024-03-17T01:09:34;12.50;99.90
11965;DHT22;6042;41.326;19.826;2024-03-17T01:12:02;12.50;99.90
11965;DHT22;6042;41.326;19.826;2024-03-17T01:14:29;12.40;99.90
11965;DHT22;6042;41.326;19.826;2024-03-17T01:16:58;12.40;99.90
11965;DHT22;6042;41.326;19.826;2024-03-17T01:19:24;12.50;99.90
11965;DHT22;6042;41.326;19.826;2024-03-17T01:21:54;12.60;99.90
11965;DHT22;6042;41.326;19.826;2024-03-17T01:24:20;12.60;99.90
11965;DHT22;6042;41.326;19.826;2024-03-17T01:26:48;12.60;99.90
11965;DHT22;6042;41.326;19.826;2024-03-17T01:29:15;12.50;99.90
11965;DHT22;6042;41.326;19.826;2024-03-17T01:31:44;12.50;99.90
11965;DHT22;6042;41.326;19.826;2024-03-17T01:34:10;12.40;99.90
11965;DHT22;6042;41.326;19.826;2024-03-17T01:36:38;12.30;99.90
11965;DHT22;6042;41.326;19.826;2024-03-17T01:39:06;12.20;99.90
11965;DHT22;6042;41.326;19.826;2024-03-17T01:41:34;12.30;99.90
11965;DHT22;6042;41.326;19.826;2024-03-17T01:44:00;12.30;99.90
11965;DHT22;6042;41.326;19.826;2024-03-17T01:46:29;12.30;99.90
11965;DHT22;6042;41.326;19.826;2024-03-17T01:48:55;12.20;99.90
11965;DHT22;6042;41.326;19.826;2024-03-17T01:51:23;12.20;99.90
11965;DHT22;6042;41.326;19.826;2024-03-17T01:53:50;12.10;99.90
11965;DHT22;6042;41.326;19.826;2024-03-17T01:56:20;12.00;99.90
11965;DHT22;6042;41.326;19.826;2024-03-17T01:58:47;11.90;99.90
11965;DHT22;6042;41.326;19.826;2024-03-17T02:01:15;11.80;99.90
11965;DHT22;6042;41.326;19.826;2024-03-17T02:03:42;11.80;99.90
11965;DHT22;6042;41.326;19.826;2024-03-17T02:06:09;11.70;99.90
11965;DHT22;6042;41.326;19.826;2024-03-17T02:08:49;11.70;99.90
11965;DHT22;6042;41.326;19.826;2024-03-17T02:11:25;11.60;99.90
11965;DHT22;6042;41.326;19.826;2024-03-17T02:13:53;11.60;99.90
11965;DHT22;6042;41.326;19.826;2024-03-17T02:16:21;11.60;99.90
11965;DHT22;6042;41.326;19.826;2024-03-17T02:18:47;11.60;99.90
11965;DHT22;6042;41.326;19.826;2024-03-17T02:21:15;11.60;99.90
11965;DHT22;6042;41.326;19.826;2024-03-17T02:23:44;11.60;99.90
11965;DHT22;6042;41.326;19.826;2024-03-17T02:26:12;11.60;99.90
11965;DHT22;6042;41.326;19.826;2024-03-17T02:28:40;11.50;99.90
11965;DHT22;6042;41.326;19.826;2024-03-17T02:31:08;11.60;99.90
11965;DHT22;6042;41.326;19.826;2024-03-17T02:33:36;11.70;99.90
11965;DHT22;6042;41.326;19.826;2024-03-17T02:36:05;11.80;99.90
11965;DHT22;6042;41.326;19.826;2024-03-17T02:38:33;11.80;99.90
11965;DHT22;6042;41.326;19.826;2024-03-17T02:41:16;11.80;99.90
11965;DHT22;6042;41.326;19.826;2024-03-17T02:43:44;11.80;99.90
11965;DHT22;6042;41.326;19.826;2024-03-17T02:46:12;11.80;99.90
11965;DHT22;6042;41.326;19.826;2024-03-17T02:48:40;11.80;99.90
11965;DHT22;6042;41.326;19.826;2024-03-17T02:51:12;11.80;99.90
11965;DHT22;6042;41.326;19.826;2024-03-17T02:53:41;11.70;99.90
11965;DHT22;6042;41.326;19.826;2024-03-17T02:56:09;11.70;99.90
11965;DHT22;6042;41.326;19.826;2024-03-17T02:58:39;11.60;99.90
11965;DHT22;6042;41.326;19.826;2024-03-17T03:01:08;11.60;99.90
11965;DHT22;6042;41.326;19.826;2024-03-17T03:03:36;11.60;99.90
11965;DHT22;6042;41.326;19.826;2024-03-17T03:06:04;11.60;99.90
11965;DHT22;6042;41.326;19.826;2024-03-17T03:08:35;11.60;99.90
11965;DHT22;6042;41.326;19.826;2024-03-17T03:11:05;11.60;99.90
11965;DHT22;6042;41.326;19.826;2024-03-17T03:13:33;11.50;99.90
11965;DHT22;6042;41.326;19.826;2024-03-17T03:16:02;11.60;99.90
11965;DHT22;6042;41.326;19.826;2024-03-17T03:18:30;11.50;99.90
11965;DHT22;6042;41.326;19.826;2024-03-17T03:20:57;11.50;99.90
11965;DHT22;6042;41.326;19.826;2024-03-17T03:23:25;11.70;99.90
11965;DHT22;6042;41.326;19.826;2024-03-17T03:25:55;11.80;99.90
11965;DHT22;6042;41.326;19.826;2024-03-17T03:28:24;11.90;99.90
11965;DHT22;6042;41.326;19.826;2024-03-17T03:30:51;12.00;99.90
11965;DHT22;6042;41.326;19.826;2024-03-17T03:33:21;12.10;99.90
11965;DHT22;6042;41.326;19.826;2024-03-17T03:35:48;12.10;99.90
11965;DHT22;6042;41.326;19.826;2024-03-17T03:38:17;12.20;99.90
11965;DHT22;6042;41.326;19.826;2024-03-17T03:40:44;12.20;99.90
11965;DHT22;6042;41.326;19.826;2024-03-17T03:43:14;12.20;99.90
11965;DHT22;6042;41.326;19.826;2024-03-17T03:45:41;12.20;99.90
11965;DHT22;6042;41.326;19.826;2024-03-17T03:48:09;12.20;99.90
11965;DHT22;6042;41.326;19.826;2024-03-17T03:50:39;12.20;99.90
11965;DHT22;6042;41.326;19.826;2024-03-17T03:53:07;12.20;99.90
11965;DHT22;6042;41.326;19.826;2024-03-17T03:55:34;12.20;99.90
11965;DHT22;6042;41.326;19.826;2024-03-17T03:58:02;12.10;99.90
11965;DHT22;6042;41.326;19.826;2024-03-17T04:00:30;12.20;99.90
11965;DHT22;6042;41.326;19.826;2024-03-17T04:02:59;12.20;99.90
11965;DHT22;6042;41.326;19.826;2024-03-17T04:05:27;12.20;99.90
11965;DHT22;6042;41.326;19.826;2024-03-17T04:07:58;12.20;99.90
11965;DHT22;6042;41.326;19.826;2024-03-17T04:10:25;12.10;99.90
11965;DHT22;6042;41.326;19.826;2024-03-17T04:12:53;12.10;99.90
11965;DHT22;6042;41.326;19.826;2024-03-17T04:15:21;12.00;99.90
11965;DHT22;6042;41.326;19.826;2024-03-17T04:17:48;11.70;99.90
11965;DHT22;6042;41.326;19.826;2024-03-17T04:20:16;11.60;99.90
11965;DHT22;6042;41.326;19.826;2024-03-17T04:22:43;11.50;99.90
11965;DHT22;6042;41.326;19.826;2024-03-17T04:25:12;11.40;99.90
11965;DHT22;6042;41.326;19.826;2024-03-17T04:27:40;11.40;99.90
11965;DHT22;6042;41.326;19.826;2024-03-17T04:30:08;11.40;99.90
11965;DHT22;6042;41.326;19.826;2024-03-17T04:32:38;11.40;99.90
11965;DHT22;6042;41.326;19.826;2024-03-17T04:35:07;11.50;99.90
11965;DHT22;6042;41.326;19.826;2024-03-17T04:37:34;11.50;99.90
11965;DHT22;6042;41.326;19.826;2024-03-17T04:40:06;11.60;99.90
11965;DHT22;6042;41.326;19.826;2024-03-17T04:42:38;11.70;99.90
11965;DHT22;6042;41.326;19.826;2024-03-17T04:45:07;11.60;99.90
11965;DHT22;6042;41.326;19.826;2024-03-17T04:47:36;11.70;99.90
11965;DHT22;6042;41.326;19.826;2024-03-17T04:50:05;11.80;99.90
11965;DHT22;6042;41.326;19.826;2024-03-17T04:52:33;11.90;99.90
11965;DHT22;6042;41.326;19.826;2024-03-17T04:55:00;12.00;99.90
11965;DHT22;6042;41.326;19.826;2024-03-17T04:57:30;11.90;99.90
11965;DHT22;6042;41.326;19.826;2024-03-17T04:59:58;11.70;99.90
11965;DHT22;6042;41.326;19.826;2024-03-17T05:02:26;11.70;99.90
11965;DHT22;6042;41.326;19.826;2024-03-17T05:04:54;11.70;99.90
11965;DHT22;6042;41.326;19.826;2024-03-17T05:07:22;11.90;99.90
11965;DHT22;6042;41.326;19.826;2024-03-17T05:09:50;11.90;99.90
11965;DHT22;6042;41.326;19.826;2024-03-17T05:12:17;11.90;99.90
11965;DHT22;6042;41.326;19.826;2024-03-17T05:14:46;11.90;99.90
11965;DHT22;6042;41.326;19.826;2024-03-17T05:17:16;11.90;99.90
11965;DHT22;6042;41.326;19.826;2024-03-17T05:19:44;12.00;99.90
11965;DHT22;6042;41.326;19.826;2024-03-17T05:22:11;12.10;99.90
11965;DHT22;6042;41.326;19.826;2024-03-17T05:24:39;12.10;99.90
11965;DHT22;6042;41.326;19.826;2024-03-17T05:27:07;11.90;99.90
11965;DHT22;6042;41.326;19.826;2024-03-17T05:29:34;11.90;99.90
11965;DHT22;6042;41.326;19.826;2024-03-17T05:32:04;12.00;99.90
11965;DHT22;6042;41.326;19.826;2024-03-17T05:34:33;12.10;99.90
11965;DHT22;6042;41.326;19.826;2024-03-17T05:37:00;12.10;99.90
11965;DHT22;6042;41.326;19.826;2024-03-17T05:39:28;12.20;99.90
11965;DHT22;6042;41.326;19.826;2024-03-17T05:41:55;12.30;99.90
11965;DHT22;6042;41.326;19.826;2024-03-17T05:44:23;12.30;99.90
11965;DHT22;6042;41.326;19.826;2024-03-17T05:46:50;12.30;99.90
11965;DHT22;6042;41.326;19.826;2024-03-17T05:49:19;12.20;99.90
11965;DHT22;6042;41.326;19.826;2024-03-17T05:51:48;12.20;99.90
11965;DHT22;6042;41.326;19.826;2024-03-17T05:54:16;12.20;99.90
11965;DHT22;6042;41.326;19.826;2024-03-17T05:56:43;12.10;99.90
11965;DHT22;6042;41.326;19.826;2024-03-17T05:59:11;12.10;99.90
11965;DHT22;6042;41.326;19.826;2024-03-17T06:01:38;12.20;99.90
11965;DHT22;6042;41.326;19.826;2024-03-17T06:04:06;12.20;99.90
11965;DHT22;6042;41.326;19.826;2024-03-17T06:06:36;12.30;99.90
11965;DHT22;6042;41.326;19.826;2024-03-17T06:09:05;12.40;99.90
11965;DHT22;6042;41.326;19.826;2024-03-17T06:11:35;12.40;99.90
11965;DHT22;6042;41.326;19.826;2024-03-17T06:14:02;12.30;99.90
11965;DHT22;6042;41.326;19.826;2024-03-17T06:16:32;12.40;99.90
11965;DHT22;6042;41.326;19.826;2024-03-17T06:18:59;12.40;99.90
11965;DHT22;6042;41.326;19.826;2024-03-17T06:21:27;12.40;99.90
11965;DHT22;6042;41.326;19.826;2024-03-17T06:23:55;12.50;99.90
11965;DHT22;6042;41.326;19.826;2024-03-17T06:26:24;12.60;99.90
11965;DHT22;6042;41.326;19.826;2024-03-17T06:28:52;12.60;99.90
11965;DHT22;6042;41.326;19.826;2024-03-17T06:31:20;12.50;99.90
11965;DHT22;6042;41.326;19.826;2024-03-17T06:33:48;12.70;99.90
11965;DHT22;6042;41.326;19.826;2024-03-17T06:36:16;12.90;99.90
11965;DHT22;6042;41.326;19.826;2024-03-17T06:38:44;13.10;99.90
11965;DHT22;6042;41.326;19.826;2024-03-17T06:41:11;13.20;99.90
11965;DHT22;6042;41.326;19.826;2024-03-17T06:43:42;13.30;99.90
11965;DHT22;6042;41.326;19.826;2024-03-17T06:46:10;13.40;99.90
11965;DHT22;6042;41.326;19.826;2024-03-17T06:48:38;13.40;99.90
11965;DHT22;6042;41.326;19.826;2024-03-17T06:51:05;13.50;99.90
11965;DHT22;6042;41.326;19.826;2024-03-17T06:53:33;13.50;99.90
11965;DHT22;6042;41.326;19.826;2024-03-17T06:56:01;13.30;99.90
11965;DHT22;6042;41.326;19.826;2024-03-17T06:58:28;13.20;99.90
11965;DHT22;6042;41.326;19.826;2024-03-17T07:00:58;13.00;99.90
11965;DHT22;6042;41.326;19.826;2024-03-17T07:03:27;13.00;99.90
11965;DHT22;6042;41.326;19.826;2024-03-17T07:05:56;12.90;99.90
11965;DHT22;6042;41.326;19.826;2024-03-17T07:08:24;12.90;99.90
11965;DHT22;6042;41.326;19.826;2024-03-17T07:10:59;12.90;99.90
11965;DHT22;6042;41.326;19.826;2024-03-17T07:13:30;13.00;99.90
11965;DHT22;6042;41.326;19.826;2024-03-17T07:16:00;13.00;99.90
11965;DHT22;6042;41.326;19.826;2024-03-17T07:18:28;13.00;99.90
11965;DHT22;6042;41.326;19.826;2024-03-17T07:20:59;13.10;99.90
11965;DHT22;6042;41.326;19.826;2024-03-17T07:23:28;13.20;99.90
11965;DHT22;6042;41.326;19.826;2024-03-17T07:26:02;13.40;99.90
11965;DHT22;6042;41.326;19.826;2024-03-17T07:28:31;13.60;99.90
11965;DHT22;6042;41.326;19.826;2024-03-17T07:31:00;13.60;99.90
11965;DHT22;6042;41.326;19.826;2024-03-17T07:33:28;13.80;99.90
11965;DHT22;6042;41.326;19.826;2024-03-17T07:35:56;14.00;99.90
11965;DHT22;6042;41.326;19.826;2024-03-17T07:38:27;14.10;99.90
11965;DHT22;6042;41.326;19.826;2024-03-17T07:40:56;14.20;99.90
11965;DHT22;6042;41.326;19.826;2024-03-17T07:43:24;14.30;99.90
11965;DHT22;6042;41.326;19.826;2024-03-17T07:46:03;14.30;99.90
11965;DHT22;6042;41.326;19.826;2024-03-17T07:48:33;14.40;99.90
11965;DHT22;6042;41.326;19.826;2024-03-17T07:51:02;14.40;99.90
11965;DHT22;6042;41.326;19.826;2024-03-17T07:53:30;14.60;99.90
11965;DHT22;6042;41.326;19.826;2024-03-17T07:55:58;14.90;99.90
11965;DHT22;6042;41.326;19.826;2024-03-17T07:58:26;14.90;99.90
11965;DHT22;6042;41.326;19.826;2024-03-17T08:00:57;15.10;99.90
11965;DHT22;6042;41.326;19.826;2024-03-17T08:03:28;15.20;99.90
11965;DHT22;6042;41.326;19.826;2024-03-17T08:06:00;15.30;99.90
11965;DHT22;6042;41.326;19.826;2024-03-17T08:08:28;15.30;99.90
11965;DHT22;6042;41.326;19.826;2024-03-17T08:10:56;15.40;99.90
11965;DHT22;6042;41.326;19.826;2024-03-17T08:13:24;15.50;99.90
11965;DHT22;6042;41.326;19.826;2024-03-17T08:15:58;15.50;99.90
11965;DHT22;6042;41.326;19.826;2024-03-17T08:18:26;15.60;99.90
11965;DHT22;6042;41.326;19.826;2024-03-17T08:20:55;15.60;99.90
11965;DHT22;6042;41.326;19.826;2024-03-17T08:23:23;15.60;99.90
11965;DHT22;6042;41.326;19.826;2024-03-17T08:25:54;15.60;99.90
11965;DHT22;6042;41.326;19.826;2024-03-17T08:28:22;15.80;99.90
11965;DHT22;6042;41.326;19.826;2024-03-17T08:30:51;16.00;99.90
11965;DHT22;6042;41.326;19.826;2024-03-17T08:33:19;16.10;99.90
11965;DHT22;6042;41.326;19.826;2024-03-17T08:35:56;16.20;99.90
11965;DHT22;6042;41.326;19.826;2024-03-17T08:38:24;16.30;99.90
11965;DHT22;6042;41.326;19.826;2024-03-17T08:40:52;16.40;99.90
11965;DHT22;6042;41.326;19.826;2024-03-17T08:43:20;16.40;99.90
11965;DHT22;6042;41.326;19.826;2024-03-17T08:45:54;16.40;99.90
11965;DHT22;6042;41.326;19.826;2024-03-17T08:48:25;16.50;99.90
11965;DHT22;6042;41.326;19.826;2024-03-17T08:50:56;16.40;99.90
11965;DHT22;6042;41.326;19.826;2024-03-17T08:53:24;16.30;99.90
11965;DHT22;6042;41.326;19.826;2024-03-17T08:55:53;16.20;99.90
11965;DHT22;6042;41.326;19.826;2024-03-17T08:58:20;16.20;99.90
11965;DHT22;6042;41.326;19.826;2024-03-17T09:00:48;16.20;99.90
11965;DHT22;6042;41.326;19.826;2024-03-17T09:03:17;16.20;99.90
11965;DHT22;6042;41.326;19.826;2024-03-17T09:05:46;16.30;99.90
11965;DHT22;6042;41.326;19.826;2024-03-17T09:08:17;16.50;99.90
11965;DHT22;6042;41.326;19.826;2024-03-17T09:10:47;16.60;99.90
11965;DHT22;6042;41.326;19.826;2024-03-17T09:13:16;16.50;99.90
11965;DHT22;6042;41.326;19.826;2024-03-17T09:15:50;16.50;99.90
11965;DHT22;6042;41.326;19.826;2024-03-17T09:18:20;16.60;99.90
11965;DHT22;6042;41.326;19.826;2024-03-17T09:20:58;16.60;99.90
11965;DHT22;6042;41.326;19.826;2024-03-17T09:23:29;16.60;99.90
11965;DHT22;6042;41.326;19.826;2024-03-17T09:25:57;16.60;99.90
11965;DHT22;6042;41.326;19.826;2024-03-17T09:28:50;16.70;99.90
11965;DHT22;6042;41.326;19.826;2024-03-17T09:31:17;16.80;99.90
11965;DHT22;6042;41.326;19.826;2024-03-17T09:33:46;16.90;99.90
11965;DHT22;6042;41.326;19.826;2024-03-17T09:36:13;16.90;99.80
11965;DHT22;6042;41.326;19.826;2024-03-17T09:38:42;16.90;99.90
11965;DHT22;6042;41.326;19.826;2024-03-17T09:41:20;16.80;99.90
11965;DHT22;6042;41.326;19.826;2024-03-17T09:43:48;16.90;99.90
11965;DHT22;6042;41.326;19.826;2024-03-17T09:46:17;17.00;99.60
11965;DHT22;6042;41.326;19.826;2024-03-17T09:48:45;17.00;99.40
11965;DHT22;6042;41.326;19.826;2024-03-17T09:51:18;17.10;99.60
11965;DHT22;6042;41.326;19.826;2024-03-17T09:53:49;17.10;99.50
11965;DHT22;6042;41.326;19.826;2024-03-17T09:56:17;17.20;99.40
11965;DHT22;6042;41.326;19.826;2024-03-17T09:58:46;17.30;99.10
11965;DHT22;6042;41.326;19.826;2024-03-17T10:01:14;17.20;99.30
11965;DHT22;6042;41.326;19.826;2024-03-17T10:03:43;17.30;99.10
11965;DHT22;6042;41.326;19.826;2024-03-17T10:06:12;17.30;99.40
11965;DHT22;6042;41.326;19.826;2024-03-17T10:08:41;17.30;99.10
11965;DHT22;6042;41.326;19.826;2024-03-17T10:11:10;17.40;99.20
11965;DHT22;6042;41.326;19.826;2024-03-17T10:13:39;17.60;98.90
11965;DHT22;6042;41.326;19.826;2024-03-17T10:16:07;17.70;98.80
11965;DHT22;6042;41.326;19.826;2024-03-17T10:18:46;17.70;98.90
11965;DHT22;6042;41.326;19.826;2024-03-17T10:21:24;17.60;98.60
11965;DHT22;6042;41.326;19.826;2024-03-17T10:24:05;17.60;99.00
11965;DHT22;6042;41.326;19.826;2024-03-17T10:26:36;17.80;98.80
11965;DHT22;6042;41.326;19.826;2024-03-17T10:29:05;18.00;98.60
11965;DHT22;6042;41.326;19.826;2024-03-17T10:31:42;18.30;98.30
11965;DHT22;6042;41.326;19.826;2024-03-17T10:34:15;18.30;98.50
11965;DHT22;6042;41.326;19.826;2024-03-17T10:36:45;18.60;98.20
11965;DHT22;6042;41.326;19.826;2024-03-17T10:39:23;18.70;98.20
11965;DHT22;6042;41.326;19.826;2024-03-17T10:42:01;18.80;98.00
11965;DHT22;6042;41.326;19.826;2024-03-17T10:44:29;18.80;97.70
11965;DHT22;6042;41.326;19.826;2024-03-17T10:46:58;18.70;97.60
11965;DHT22;6042;41.326;19.826;2024-03-17T10:49:29;18.60;97.80
11965;DHT22;6042;41.326;19.826;2024-03-17T10:52:00;18.40;97.90
11965;DHT22;6042;41.326;19.826;2024-03-17T10:54:28;18.60;97.70
11965;DHT22;6042;41.326;19.826;2024-03-17T10:57:11;18.80;97.60
11965;DHT22;6042;41.326;19.826;2024-03-17T10:59:47;19.10;97.40
11965;DHT22;6042;41.326;19.826;2024-03-17T11:02:21;19.50;97.00
11965;DHT22;6042;41.326;19.826;2024-03-17T11:04:53;19.50;97.00
11965;DHT22;6042;41.326;19.826;2024-03-17T11:07:22;19.60;96.80
11965;DHT22;6042;41.326;19.826;2024-03-17T11:09:51;19.30;97.30
11965;DHT22;6042;41.326;19.826;2024-03-17T11:12:42;19.40;97.50
11965;DHT22;6042;41.326;19.826;2024-03-17T11:18:35;19.30;97.50
11965;DHT22;6042;41.326;19.826;2024-03-17T11:21:10;19.40;97.30
11965;DHT22;6042;41.326;19.826;2024-03-17T11:23:56;19.80;97.30
11965;DHT22;6042;41.326;19.826;2024-03-17T11:26:33;20.00;96.70
11965;DHT22;6042;41.326;19.826;2024-03-17T11:29:02;20.10;96.50
11965;DHT22;6042;41.326;19.826;2024-03-17T11:31:44;20.10;96.00
11965;DHT22;6042;41.326;19.826;2024-03-17T11:34:40;19.90;96.40
11965;DHT22;6042;41.326;19.826;2024-03-17T11:37:40;19.70;96.90
11965;DHT22;6042;41.326;19.826;2024-03-17T11:40:23;19.40;97.40
11965;DHT22;6042;41.326;19.826;2024-03-17T11:43:00;19.20;97.30
11965;DHT22;6042;41.326;19.826;2024-03-17T11:45:28;19.10;97.30
11965;DHT22;6042;41.326;19.826;2024-03-17T11:47:57;19.10;97.30
11965;DHT22;6042;41.326;19.826;2024-03-17T11:50:24;19.10;97.30
11965;DHT22;6042;41.326;19.826;2024-03-17T11:53:00;19.20;97.00
11965;DHT22;6042;41.326;19.826;2024-03-17T11:55:26;19.50;96.50
11965;DHT22;6042;41.326;19.826;2024-03-17T11:57:55;20.20;95.90
11965;DHT22;6042;41.326;19.826;2024-03-17T12:00:24;20.50;96.10
11965;DHT22;6042;41.326;19.826;2024-03-17T12:02:53;21.00;95.70
11965;DHT22;6042;41.326;19.826;2024-03-17T12:05:20;20.90;96.00
11965;DHT22;6042;41.326;19.826;2024-03-17T12:07:48;20.90;96.30
11965;DHT22;6042;41.326;19.826;2024-03-17T12:10:16;20.90;96.70
11965;DHT22;6042;41.326;19.826;2024-03-17T12:12:47;20.60;97.20
11965;DHT22;6042;41.326;19.826;2024-03-17T12:15:19;20.10;97.90
11965;DHT22;6042;41.326;19.826;2024-03-17T12:17:57;19.70;98.40
11965;DHT22;6042;41.326;19.826;2024-03-17T12:20:25;19.20;99.10
11965;DHT22;6042;41.326;19.826;2024-03-17T12:22:55;19.10;99.60
11965;DHT22;6042;41.326;19.826;2024-03-17T12:25:23;18.90;99.40
11965;DHT22;6042;41.326;19.826;2024-03-17T12:27:52;18.80;99.60
11965;DHT22;6042;41.326;19.826;2024-03-17T12:30:20;18.90;99.80
11965;DHT22;6042;41.326;19.826;2024-03-17T12:32:47;18.90;99.70
11965;DHT22;6042;41.326;19.826;2024-03-17T12:35:18;19.10;99.20
11965;DHT22;6042;41.326;19.826;2024-03-17T12:37:46;19.50;98.90
11965;DHT22;6042;41.326;19.826;2024-03-17T12:40:21;19.70;98.30
11965;DHT22;6042;41.326;19.826;2024-03-17T12:42:49;20.10;98.60
11965;DHT22;6042;41.326;19.826;2024-03-17T12:45:20;20.60;98.20
11965;DHT22;6042;41.326;19.826;2024-03-17T12:47:48;20.50;97.60
11965;DHT22;6042;41.326;19.826;2024-03-17T12:50:20;20.00;98.00
11965;DHT22;6042;41.326;19.826;2024-03-17T12:52:55;20.00;97.90
11965;DHT22;6042;41.326;19.826;2024-03-17T12:55:23;20.00;97.90
11965;DHT22;6042;41.326;19.826;2024-03-17T12:58:09;20.20;97.80
11965;DHT22;6042;41.326;19.826;2024-03-17T13:00:58;20.20;97.90
11965;DHT22;6042;41.326;19.826;2024-03-17T13:03:27;20.50;97.40
11965;DHT22;6042;41.326;19.826;2024-03-17T13:05:56;20.90;97.00
11965;DHT22;6042;41.326;19.826;2024-03-17T13:08:23;21.20;96.80
11965;DHT22;6042;41.326;19.826;2024-03-17T13:10:51;20.70;97.20
11965;DHT22;6042;41.326;19.826;2024-03-17T13:13:18;20.50;97.40
11965;DHT22;6042;41.326;19.826;2024-03-17T13:15:46;20.50;97.70
11965;DHT22;6042;41.326;19.826;2024-03-17T13:18:17;20.40;97.80
11965;DHT22;6042;41.326;19.826;2024-03-17T13:20:49;20.20;97.90
11965;DHT22;6042;41.326;19.826;2024-03-17T13:23:19;20.20;97.90
11965;DHT22;6042;41.326;19.826;2024-03-17T13:25:47;20.40;98.00
11965;DHT22;6042;41.326;19.826;2024-03-17T13:28:15;20.40;98.00
11965;DHT22;6042;41.326;19.826;2024-03-17T13:30:42;20.40;97.90
11965;DHT22;6042;41.326;19.826;2024-03-17T13:33:10;20.60;97.50
11965;DHT22;6042;41.326;19.826;2024-03-17T13:35:39;20.90;97.60
11965;DHT22;6042;41.326;19.826;2024-03-17T13:38:08;21.00;97.10
11965;DHT22;6042;41.326;19.826;2024-03-17T13:40:39;20.90;97.20
11965;DHT22;6042;41.326;19.826;2024-03-17T13:43:09;20.90;97.40
11965;DHT22;6042;41.326;19.826;2024-03-17T13:45:39;20.60;97.80
11965;DHT22;6042;41.326;19.826;2024-03-17T13:48:08;20.60;98.20
11965;DHT22;6042;41.326;19.826;2024-03-17T13:50:37;20.50;98.60
11965;DHT22;6042;41.326;19.826;2024-03-17T13:53:05;20.40;98.70
11965;DHT22;6042;41.326;19.826;2024-03-17T13:55:32;20.50;98.90
11965;DHT22;6042;41.326;19.826;2024-03-17T13:58:02;21.30;98.00
11965;DHT22;6042;41.326;19.826;2024-03-17T14:00:31;21.70;97.70
11965;DHT22;6042;41.326;19.826;2024-03-17T14:03:03;21.80;98.20
11965;DHT22;6042;41.326;19.826;2024-03-17T14:05:30;21.80;98.40
11965;DHT22;6042;41.326;19.826;2024-03-17T14:08:06;22.30;98.00
11965;DHT22;6042;41.326;19.826;2024-03-17T14:10:34;22.70;97.20
11965;DHT22;6042;41.326;19.826;2024-03-17T14:13:03;22.50;97.30
11965;DHT22;6042;41.326;19.826;2024-03-17T14:15:31;22.30;97.90
11965;DHT22;6042;41.326;19.826;2024-03-17T14:17:58;22.20;97.90
11965;DHT22;6042;41.326;19.826;2024-03-17T14:20:25;22.50;97.60
11965;DHT22;6042;41.326;19.826;2024-03-17T14:22:53;22.50;98.10
11965;DHT22;6042;41.326;19.826;2024-03-17T14:25:23;22.50;97.70
11965;DHT22;6042;41.326;19.826;2024-03-17T14:27:52;21.70;98.90
11965;DHT22;6042;41.326;19.826;2024-03-17T14:30:21;21.00;99.50
11965;DHT22;6042;41.326;19.826;2024-03-17T14:32:49;20.40;99.90
11965;DHT22;6042;41.326;19.826;2024-03-17T14:35:17;19.70;99.90
11965;DHT22;6042;41.326;19.826;2024-03-17T14:37:47;19.50;99.90
11965;DHT22;6042;41.326;19.826;2024-03-17T14:40:15;19.10;99.90
11965;DHT22;6042;41.326;19.826;2024-03-17T14:42:48;19.00;99.90
11965;DHT22;6042;41.326;19.826;2024-03-17T14:45:16;19.00;99.90
11965;DHT22;6042;41.326;19.826;2024-03-17T14:47:44;19.10;99.90
11965;DHT22;6042;41.326;19.826;2024-03-17T14:50:13;18.80;99.90
11965;DHT22;6042;41.326;19.826;2024-03-17T14:52:42;18.80;99.90
11965;DHT22;6042;41.326;19.826;2024-03-17T14:55:13;18.80;99.90
11965;DHT22;6042;41.326;19.826;2024-03-17T14:57:40;18.70;99.90
11965;DHT22;6042;41.326;19.826;2024-03-17T15:00:10;18.60;99.90
11965;DHT22;6042;41.326;19.826;2024-03-17T15:02:45;18.70;99.90
11965;DHT22;6042;41.326;19.826;2024-03-17T15:05:14;18.70;99.90
11965;DHT22;6042;41.326;19.826;2024-03-17T15:07:43;18.60;99.90
11965;DHT22;6042;41.326;19.826;2024-03-17T15:10:11;18.70;99.90
11965;DHT22;6042;41.326;19.826;2024-03-17T15:12:39;18.70;99.90
11965;DHT22;6042;41.326;19.826;2024-03-17T15:15:08;18.60;99.90
11965;DHT22;6042;41.326;19.826;2024-03-17T15:17:36;18.50;99.90
11965;DHT22;6042;41.326;19.826;2024-03-17T15:20:07;18.70;99.90
11965;DHT22;6042;41.326;19.826;2024-03-17T15:22:42;18.60;99.90
11965;DHT22;6042;41.326;19.826;2024-03-17T15:25:10;18.50;99.90
11965;DHT22;6042;41.326;19.826;2024-03-17T15:27:39;18.50;99.90
11965;DHT22;6042;41.326;19.826;2024-03-17T15:30:10;18.60;99.90
11965;DHT22;6042;41.326;19.826;2024-03-17T15:32:41;18.50;99.90
11965;DHT22;6042;41.326;19.826;2024-03-17T15:35:11;18.30;99.90
11965;DHT22;6042;41.326;19.826;2024-03-17T15:37:40;18.10;99.90
11965;DHT22;6042;41.326;19.826;2024-03-17T15:40:09;18.10;99.90
11965;DHT22;6042;41.326;19.826;2024-03-17T15:42:43;18.20;99.90
11965;DHT22;6042;41.326;19.826;2024-03-17T15:45:11;18.10;99.90
11965;DHT22;6042;41.326;19.826;2024-03-17T15:47:39;17.90;99.90